Time;durP1;ratioP1;P1;durP2;ratioP2;P2;SDS_P1;SDS_P2;PMS_P1;PMS_P2;Temp;Humidity;BMP_temperature;BMP_pressure;BME280_temperature;BME280_humidity;BME280_pressure;Samples;Min_cycle;Max_cycle;Signal;HPM_P1;HPM_P2
2022/11/25 00:01:33;;;;;;;7.43;6.65;;;;;;;;;;10268825;28;20068;-60
2022/11/25 00:06:32;;;;;;;9.55;6.82;;;;;;;;;;10269452;28;20072;-61
2022/11/25 00:11:30;;;;;;;7.43;6.63;;;;;;;;;;10269018;28;20073;-60
2022/11/25 00:16:29;;;;;;;5.72;5.10;;;;;;;;;;10268958;28;20103;-61
2022/11/25 00:21:29;;;;;;;6.07;5.47;;;;;;;;;;10268971;28;20072;-61
2022/11/25 00:26:28;;;;;;;6.10;5.05;;;;;;;;;;10269221;28;20041;-61
2022/11/25 00:31:28;;;;;;;5.63;4.70;;;;;;;;;;10270640;28;20045;-61
2022/11/25 00:36:27;;;;;;;6.15;5.55;;;;;;;;;;10271032;28;20471;-61
2022/11/25 00:46:43;;;;;;;6.35;5.15;;;;;;;;;;10268020;28;20079;-60
2022/11/25 00:51:41;;;;;;;5.90;5.00;;;;;;;;;;10267887;28;20072;-62
2022/11/25 00:56:41;;;;;;;7.10;5.07;;;;;;;;;;10268022;28;20076;-60
2022/11/25 01:01:39;;;;;;;8.32;6.45;;;;;;;;;;10270714;28;20037;-60
2022/11/25 01:06:38;;;;;;;6.63;5.45;;;;;;;;;;10267619;28;20103;-60
2022/11/25 01:11:36;;;;;;;8.02;5.97;;;;;;;;;;10267120;28;20068;-61
2022/11/25 01:16:36;;;;;;;4.75;4.30;;;;;;;;;;10267825;28;20069;-60
2022/11/25 01:21:37;;;;;;;5.20;4.60;;;;;;;;;;10267222;28;20069;-60
2022/11/25 01:26:36;;;;;;;5.45;4.95;;;;;;;;;;10268045;28;20048;-61
2022/11/25 01:31:36;;;;;;;10.20;5.25;;;;;;;;;;10267842;28;20069;-61
2022/11/25 01:36:34;;;;;;;6.65;4.28;;;;;;;;;;10266792;28;20069;-61
2022/11/25 01:41:34;;;;;;;4.82;4.28;;;;;;;;;;10266975;28;20095;-61
2022/11/25 01:46:38;;;;;;;6.35;4.95;;;;;;;;;;10267353;28;20065;-61
2022/11/25 01:51:39;;;;;;;5.15;4.65;;;;;;;;;;10272139;28;20068;-61
2022/11/25 01:56:39;;;;;;;5.55;5.05;;;;;;;;;;10273948;28;20115;-61
2022/11/25 02:01:39;;;;;;;5.20;4.70;;;;;;;;;;10274070;28;20071;-61
2022/11/25 02:06:40;;;;;;;9.88;6.22;;;;;;;;;;10274259;28;20049;-61
2022/11/25 02:11:39;;;;;;;8.10;5.35;;;;;;;;;;10275994;28;20521;-61
2022/11/25 02:16:39;;;;;;;6.88;5.30;;;;;;;;;;10273086;28;20079;-61
2022/11/25 02:21:42;;;;;;;8.82;6.95;;;;;;;;;;10275416;28;20491;-60
2022/11/25 02:26:42;;;;;;;6.57;5.70;;;;;;;;;;10275249;28;20064;-61
2022/11/25 02:31:40;;;;;;;7.03;5.50;;;;;;;;;;10273433;28;20065;-61
2022/11/25 02:36:39;;;;;;;8.85;5.88;;;;;;;;;;10275137;28;20087;-61
2022/11/25 02:41:39;;;;;;;5.70;4.82;;;;;;;;;;10274042;28;20065;-59
2022/11/25 02:46:40;;;;;;;5.57;5.07;;;;;;;;;;10274851;28;20180;-59
2022/11/25 02:51:39;;;;;;;5.88;4.88;;;;;;;;;;10274575;28;20041;-60
2022/11/25 02:56:39;;;;;;;6.53;5.88;;;;;;;;;;10272239;28;20072;-60
2022/11/25 03:01:40;;;;;;;6.90;6.20;;;;;;;;;;10271761;28;20071;-60
2022/11/25 03:06:40;;;;;;;5.47;4.93;;;;;;;;;;10273181;28;20060;-60
2022/11/25 03:16:54;;;;;;;;;;;;;;;;;;10273926;28;20052;-60
2022/11/25 03:21:56;;;;;;;5.95;5.45;;;;;;;;;;10273311;28;19928;-61
2022/11/25 03:26:54;;;;;;;7.25;6.05;;;;;;;;;;10273754;28;20049;-61
2022/11/25 03:31:53;;;;;;;6.20;5.57;;;;;;;;;;10273087;28;20056;-60
2022/11/25 03:36:51;;;;;;;7.63;6.30;;;;;;;;;;10270553;28;20091;-60
2022/11/25 03:41:54;;;;;;;7.15;6.45;;;;;;;;;;10272800;28;20092;-60
2022/11/25 03:46:52;;;;;;;9.27;7.72;;;;;;;;;;10272193;28;20048;-60
2022/11/25 03:51:51;;;;;;;39.80;26.50;;;;;;;;;;10272063;28;20396;-59
2022/11/25 03:56:51;;;;;;;7.88;7.07;;;;;;;;;;10272160;28;20049;-60
2022/11/25 04:01:51;;;;;;;8.82;7.95;;;;;;;;;;10269591;28;20057;-59
2022/11/25 04:06:50;;;;;;;7.68;6.93;;;;;;;;;;10271936;28;20099;-60
2022/11/25 04:17:14;;;;;;;;;;;;;;;;;;10271450;28;20099;-60
2022/11/25 04:22:14;;;;;;;9.30;8.18;;;;;;;;;;10270657;28;20408;-61
2022/11/25 04:27:15;;;;;;;9.70;7.97;;;;;;;;;;10270135;28;20099;-61
2022/11/25 04:32:13;;;;;;;10.73;9.27;;;;;;;;;;10269003;28;20064;-60
2022/11/25 04:37:11;;;;;;;13.20;10.23;;;;;;;;;;10268720;28;20092;-61
2022/11/25 04:47:29;;;;;;;11.30;9.88;;;;;;;;;;10261472;28;20049;-61
2022/11/25 04:52:27;;;;;;;20.80;13.23;;;;;;;;;;10267958;28;20084;-62
2022/11/25 04:57:27;;;;;;;17.90;12.95;;;;;;;;;;10266389;28;20088;-62
2022/11/25 05:02:26;;;;;;;16.80;12.25;;;;;;;;;;10266553;28;20473;-61
2022/11/25 05:07:37;;;;;;;18.30;14.02;;;;;;;;;;10267118;28;20045;-59
2022/11/25 05:12:38;;;;;;;16.40;12.57;;;;;;;;;;10266253;28;20092;-61
2022/11/25 05:17:40;;;;;;;13.13;10.55;;;;;;;;;;10266096;28;20507;-60
2022/11/25 05:22:39;;;;;;;12.35;10.32;;;;;;;;;;10266696;28;20080;-60
2022/11/25 05:27:44;;;;;;;17.10;11.95;;;;;;;;;;10275109;28;20079;-60
2022/11/25 05:32:44;;;;;;;26.30;17.65;;;;;;;;;;10264818;28;20454;-61
2022/11/25 05:37:43;;;;;;;18.50;13.60;;;;;;;;;;10268163;28;20084;-60
2022/11/25 05:42:43;;;;;;;11.20;9.95;;;;;;;;;;10272372;28;20080;-61
2022/11/25 05:47:42;;;;;;;10.10;7.90;;;;;;;;;;10274142;28;20049;-62
2022/11/25 05:52:43;;;;;;;16.88;13.90;;;;;;;;;;10273661;28;20103;-62
2022/11/25 05:57:41;;;;;;;12.48;10.02;;;;;;;;;;10277196;28;20088;-64
2022/11/25 06:02:41;;;;;;;12.82;9.77;;;;;;;;;;10268794;28;20114;-60
2022/11/25 06:07:43;;;;;;;23.35;15.15;;;;;;;;;;10272775;28;20426;-60
2022/11/25 06:12:42;;;;;;;20.10;12.07;;;;;;;;;;10275405;28;20053;-61
2022/11/25 06:17:41;;;;;;;11.82;10.30;;;;;;;;;;10269674;28;20084;-61
2022/11/25 06:22:50;;;;;;;22.92;15.02;;;;;;;;;;10266855;28;20087;-61
2022/11/25 06:27:54;;;;;;;23.90;13.18;;;;;;;;;;10272232;28;20059;-61
2022/11/25 06:33:11;;;;;;;22.42;15.98;;;;;;;;;;10271212;28;20076;-61
2022/11/25 06:38:11;;;;;;;20.83;15.07;;;;;;;;;;10271265;28;20512;-61
2022/11/25 06:43:09;;;;;;;13.75;11.55;;;;;;;;;;10252999;28;20073;-60
2022/11/25 06:48:08;;;;;;;17.20;15.00;;;;;;;;;;10244150;28;20076;-61
2022/11/25 06:53:07;;;;;;;11.52;9.93;;;;;;;;;;10252283;28;20079;-62
2022/11/25 06:58:06;;;;;;;13.80;10.63;;;;;;;;;;10267517;28;20077;-61
2022/11/25 07:03:24;;;;;;;13.85;10.68;;;;;;;;;;10271941;28;20159;-61
2022/11/25 07:08:24;;;;;;;19.52;17.15;;;;;;;;;;10270912;28;20076;-60
2022/11/25 07:13:29;;;;;;;12.05;10.20;;;;;;;;;;10270870;28;20089;-61
2022/11/25 07:18:28;;;;;;;10.07;8.77;;;;;;;;;;10270827;28;20064;-61
2022/11/25 07:23:28;;;;;;;14.30;11.38;;;;;;;;;;10272298;28;20075;-62
2022/11/25 07:28:27;;;;;;;11.88;8.38;;;;;;;;;;10267234;28;20447;-61
2022/11/25 07:33:26;;;;;;;10.95;9.07;;;;;;;;;;10269460;28;20068;-61
2022/11/25 07:38:24;;;;;;;7.63;6.82;;;;;;;;;;10269702;28;20485;-62
2022/11/25 07:43:24;;;;;;;10.90;7.75;;;;;;;;;;10263811;28;20076;-62
2022/11/25 07:48:22;;;;;;;13.57;10.55;;;;;;;;;;10263875;28;20071;-61
2022/11/25 07:53:21;;;;;;;128.65;84.70;;;;;;;;;;10266438;28;20072;-61
2022/11/25 07:58:19;;;;;;;14.70;10.82;;;;;;;;;;10268397;28;20084;-63
2022/11/25 08:03:18;;;;;;;18.45;14.48;;;;;;;;;;10263664;28;20087;-62
2022/11/25 08:08:17;;;;;;;13.32;11.63;;;;;;;;;;10263910;28;20071;-61
2022/11/25 08:13:15;;;;;;;11.02;9.55;;;;;;;;;;10266362;28;20096;-61
2022/11/25 08:18:13;;;;;;;11.18;9.90;;;;;;;;;;10272248;28;20077;-62
2022/11/25 08:23:13;;;;;;;13.77;11.20;;;;;;;;;;10265233;28;20072;-63
2022/11/25 08:28:11;;;;;;;16.30;10.05;;;;;;;;;;10270534;28;20072;-61
2022/11/25 08:33:10;;;;;;;39.97;26.10;;;;;;;;;;10271157;28;20060;-61
2022/11/25 08:38:09;;;;;;;20.98;17.77;;;;;;;;;;10266708;28;20076;-62
2022/11/25 08:43:09;;;;;;;16.85;10.63;;;;;;;;;;10264902;28;20079;-61
2022/11/25 08:48:07;;;;;;;11.88;8.38;;;;;;;;;;10268162;28;20061;-61
2022/11/25 08:53:05;;;;;;;9.13;7.65;;;;;;;;;;10269319;28;20061;-62
2022/11/25 08:58:03;;;;;;;12.38;8.25;;;;;;;;;;10266494;28;20079;-63
2022/11/25 09:03:03;;;;;;;9.63;8.45;;;;;;;;;;10272858;28;20064;-62
2022/11/25 09:08:02;;;;;;;10.43;8.90;;;;;;;;;;10274616;28;20071;-61
2022/11/25 09:13:00;;;;;;;10.48;8.45;;;;;;;;;;10246291;28;20073;-61
2022/11/25 09:17:59;;;;;;;10.27;9.20;;;;;;;;;;10255546;28;20069;-60
2022/11/25 09:23:00;;;;;;;11.55;8.30;;;;;;;;;;10255819;28;20088;-61
2022/11/25 09:27:58;;;;;;;10.55;6.78;;;;;;;;;;10252875;28;20368;-60
2022/11/25 09:32:56;;;;;;;12.10;8.50;;;;;;;;;;10265210;28;20072;-61
2022/11/25 09:37:54;;;;;;;13.85;9.20;;;;;;;;;;10246284;28;20069;-61
2022/11/25 09:48:38;;;;;;;29.60;21.95;;;;;;;;;;10248008;28;20075;-60
2022/11/25 09:53:41;;;;;;;14.07;9.32;;;;;;;;;;10227177;28;20080;-61
2022/11/25 09:58:44;;;;;;;15.85;9.43;;;;;;;;;;10241097;28;20069;-61
2022/11/25 10:03:44;;;;;;;16.20;13.48;;;;;;;;;;10246047;28;20079;-60
2022/11/25 10:08:43;;;;;;;11.77;8.48;;;;;;;;;;10245648;28;20061;-59
2022/11/25 10:13:46;;;;;;;10.57;9.45;;;;;;;;;;10254837;28;20084;-60
2022/11/25 10:18:50;;;;;;;8.10;7.30;;;;;;;;;;10257172;28;20504;-60
2022/11/25 10:23:48;;;;;;;25.30;16.27;;;;;;;;;;10244019;28;20068;-61
2022/11/25 10:28:51;;;;;;;16.10;10.98;;;;;;;;;;10251949;28;20450;-61
2022/11/25 10:33:51;;;;;;;10.98;9.30;;;;;;;;;;10248135;28;20072;-62
2022/11/25 10:38:53;;;;;;;13.23;8.85;;;;;;;;;;10236184;28;20521;-60
2022/11/25 10:43:53;;;;;;;17.08;10.88;;;;;;;;;;10243866;28;20080;-61
2022/11/25 10:48:57;;;;;;;14.73;9.52;;;;;;;;;;10248837;28;20081;-61
2022/11/25 10:54:09;;;;;;;11.85;9.73;;;;;;;;;;10233906;28;20049;-61
2022/11/25 10:59:14;;;;;;;16.98;13.32;;;;;;;;;;10267306;28;20076;-61
2022/11/25 11:04:16;;;;;;;10.82;8.20;;;;;;;;;;10245202;28;20057;-61
2022/11/25 11:09:31;;;;;;;14.82;8.98;;;;;;;;;;10245572;28;20072;-61
2022/11/25 11:14:30;;;;;;;11.82;10.57;;;;;;;;;;10239771;28;20512;-61
2022/11/25 11:19:30;;;;;;;17.52;13.35;;;;;;;;;;10250224;28;21253;-62
2022/11/25 11:29:47;;;;;;;9.30;8.00;;;;;;;;;;10241461;28;20068;-60
2022/11/25 11:34:51;;;;;;;15.23;12.98;;;;;;;;;;10272539;28;20078;-60
2022/11/25 11:40:02;;;;;;;12.60;10.10;;;;;;;;;;10255552;28;20073;-60
2022/11/25 11:45:05;;;;;;;12.40;10.57;;;;;;;;;;10263702;28;20076;-61
2022/11/25 11:50:19;;;;;;;14.30;11.70;;;;;;;;;;10253635;28;20498;-61
2022/11/25 11:55:26;;;;;;;18.10;13.68;;;;;;;;;;10267407;28;20064;-61
2022/11/25 12:00:27;;;;;;;15.85;13.88;;;;;;;;;;10268813;28;20044;-61
2022/11/25 12:05:27;;;;;;;18.08;15.45;;;;;;;;;;10270890;28;20069;-61
2022/11/25 12:10:27;;;;;;;23.60;16.90;;;;;;;;;;10261293;28;20069;-61
2022/11/25 12:15:33;;;;;;;30.33;23.02;;;;;;;;;;10254929;28;20831;-61
2022/11/25 12:20:35;;;;;;;30.33;22.35;;;;;;;;;;10271948;28;20087;-60
2022/11/25 12:25:36;;;;;;;15.02;13.13;;;;;;;;;;10243263;28;20072;-59
2022/11/25 12:30:37;;;;;;;17.30;14.35;;;;;;;;;;10243561;28;20073;-61
2022/11/25 12:35:43;;;;;;;13.55;12.13;;;;;;;;;;10245279;28;20065;-61
2022/11/25 12:40:42;;;;;;;13.63;11.50;;;;;;;;;;10239805;28;20077;-62
2022/11/25 12:45:42;;;;;;;15.35;12.50;;;;;;;;;;10241248;28;20454;-61
2022/11/25 12:50:45;;;;;;;17.15;13.55;;;;;;;;;;10250900;28;20081;-61
2022/11/25 12:55:43;;;;;;;32.25;21.90;;;;;;;;;;10261270;28;20071;-60
2022/11/25 13:00:53;;;;;;;22.38;16.52;;;;;;;;;;10266910;28;20083;-61
2022/11/25 13:06:12;;;;;;;25.35;17.50;;;;;;;;;;10270632;28;20096;-60
2022/11/25 13:11:23;;;;;;;45.88;31.33;;;;;;;;;;10229279;28;20085;-60
2022/11/25 13:16:23;;;;;;;23.50;16.33;;;;;;;;;;10247269;28;20091;-62
2022/11/25 13:21:23;;;;;;;25.95;18.42;;;;;;;;;;10245579;28;20084;-62
2022/11/25 13:26:48;;;;;;;21.23;16.48;;;;;;;;;;10249688;28;20439;-61
2022/11/25 13:31:56;;;;;;;20.40;17.23;;;;;;;;;;10217108;28;20084;-60
2022/11/25 13:36:57;;;;;;;26.58;20.38;;;;;;;;;;10246951;28;20077;-61
2022/11/25 13:42:11;;;;;;;25.17;20.20;;;;;;;;;;10241421;28;20191;-61
2022/11/25 13:47:24;;;;;;;31.58;23.02;;;;;;;;;;10256849;28;20088;-60
2022/11/25 13:52:40;;;;;;;21.23;17.70;;;;;;;;;;10252216;28;20072;-61
2022/11/25 13:57:39;;;;;;;22.95;16.02;;;;;;;;;;10247657;28;20088;-61
2022/11/25 14:02:48;;;;;;;20.33;14.82;;;;;;;;;;10250246;28;20486;-62
2022/11/25 14:07:52;;;;;;;26.95;20.83;;;;;;;;;;10243918;28;20085;-61
2022/11/25 14:13:01;;;;;;;31.25;22.63;;;;;;;;;;10253233;28;20091;-62
2022/11/25 14:18:18;;;;;;;24.98;18.58;;;;;;;;;;10249281;28;20073;-62
2022/11/25 14:23:51;;;;;;;26.70;19.67;;;;;;;;;;10269253;28;20057;-60
2022/11/25 14:28:54;;;;;;;27.67;20.75;;;;;;;;;;10247537;28;20080;-61
2022/11/25 14:33:55;;;;;;;41.05;31.85;;;;;;;;;;10270335;28;20076;-62
2022/11/25 14:38:55;;;;;;;36.78;30.88;;;;;;;;;;10272097;28;20575;-62
2022/11/25 14:43:57;;;;;;;27.98;19.90;;;;;;;;;;10258153;28;20079;-62
2022/11/25 14:48:56;;;;;;;39.50;29.92;;;;;;;;;;10268708;28;20483;-63
2022/11/25 14:53:56;;;;;;;47.00;38.00;;;;;;;;;;10274421;28;20071;-61
2022/11/25 14:58:56;;;;;;;37.95;32.65;;;;;;;;;;10272910;28;20069;-62
2022/11/25 15:04:01;;;;;;;36.97;27.98;;;;;;;;;;10265010;28;20494;-62
2022/11/25 15:08:59;;;;;;;30.65;22.00;;;;;;;;;;10256559;28;20069;-62
2022/11/25 15:14:01;;;;;;;73.57;53.70;;;;;;;;;;10273521;28;20095;-61
2022/11/25 15:19:00;;;;;;;26.58;20.10;;;;;;;;;;10273254;28;20438;-62
2022/11/25 15:23:59;;;;;;;63.47;42.88;;;;;;;;;;10273108;28;20502;-62
2022/11/25 15:28:58;;;;;;;33.10;29.38;;;;;;;;;;10243297;28;20069;-62
2022/11/25 15:33:59;;;;;;;31.80;24.10;;;;;;;;;;10246103;28;20092;-63
2022/11/25 15:39:12;;;;;;;33.17;27.13;;;;;;;;;;10243259;28;20049;-62
2022/11/25 15:44:18;;;;;;;21.58;19.17;;;;;;;;;;10250899;28;20451;-61
2022/11/25 15:49:18;;;;;;;34.35;27.42;;;;;;;;;;10243192;28;20063;-61
2022/11/25 15:54:18;;;;;;;32.80;27.50;;;;;;;;;;10267120;28;20816;-61
2022/11/25 15:59:35;;;;;;;30.52;23.55;;;;;;;;;;10259778;28;20070;-61
2022/11/25 16:04:35;;;;;;;38.35;32.17;;;;;;;;;;10262962;28;20060;-62
2022/11/25 16:09:33;;;;;;;28.85;21.55;;;;;;;;;;10260584;28;20063;-62
2022/11/25 16:14:34;;;;;;;43.83;26.30;;;;;;;;;;10237911;28;20203;-63
2022/11/25 16:19:33;;;;;;;23.15;16.85;;;;;;;;;;10244950;28;20076;-62
2022/11/25 16:24:42;;;;;;;21.85;18.58;;;;;;;;;;10252833;28;20088;-61
2022/11/25 16:29:40;;;;;;;;;;;;;;;;;;10258001;28;20072;-62
2022/11/25 16:34:38;;;;;;;26.55;21.27;;;;;;;;;;10259745;28;19973;-63
2022/11/25 16:39:37;;;;;;;32.47;24.60;;;;;;;;;;10268542;28;20076;-63
2022/11/25 16:44:37;;;;;;;24.63;19.88;;;;;;;;;;10253733;28;20463;-63
2022/11/25 16:49:35;;;;;;;24.02;20.33;;;;;;;;;;10256259;28;20050;-62
2022/11/25 16:54:36;;;;;;;21.55;18.40;;;;;;;;;;10255152;28;20074;-62
2022/11/25 16:59:37;;;;;;;20.50;15.82;;;;;;;;;;10251577;28;20092;-62
2022/11/25 17:04:37;;;;;;;17.88;15.30;;;;;;;;;;10247459;28;20069;-63
2022/11/25 17:09:35;;;;;;;25.08;21.83;;;;;;;;;;10266396;28;20064;-62
2022/11/25 17:14:36;;;;;;;28.08;21.50;;;;;;;;;;10269528;28;20081;-63
2022/11/25 17:19:35;;;;;;;25.17;20.35;;;;;;;;;;10274137;28;20069;-62
2022/11/25 17:24:35;;;;;;;53.63;40.17;;;;;;;;;;10280770;28;20072;-62
2022/11/25 17:29:35;;;;;;;50.15;38.40;;;;;;;;;;10278700;28;20510;-63
2022/11/25 17:34:33;;;;;;;50.10;34.78;;;;;;;;;;10272723;28;20601;-64
2022/11/25 17:39:37;;;;;;;24.85;20.73;;;;;;;;;;10250093;28;20515;-62
2022/11/25 17:44:38;;;;;;;27.33;22.08;;;;;;;;;;10281300;28;20151;-62
2022/11/25 17:49:37;;;;;;;30.55;24.42;;;;;;;;;;10279727;28;20045;-63
2022/11/25 17:54:35;;;;;;;40.63;29.52;;;;;;;;;;10281882;28;20048;-62
2022/11/25 17:59:35;;;;;;;30.75;23.67;;;;;;;;;;10271047;28;20064;-62
2022/11/25 18:04:34;;;;;;;45.47;32.92;;;;;;;;;;10249799;28;20073;-62
2022/11/25 18:09:32;;;;;;;32.33;24.48;;;;;;;;;;10256092;28;20526;-62
2022/11/25 18:14:32;;;;;;;31.05;23.02;;;;;;;;;;10252457;28;20083;-62
2022/11/25 18:19:32;;;;;;;29.67;22.90;;;;;;;;;;10279749;28;20045;-63
2022/11/25 18:24:30;;;;;;;36.03;25.45;;;;;;;;;;10278903;28;20076;-63
2022/11/25 18:29:29;;;;;;;39.70;29.48;;;;;;;;;;10279845;28;20541;-63
2022/11/25 18:34:27;;;;;;;28.52;23.13;;;;;;;;;;10277454;28;20515;-62
2022/11/25 18:39:27;;;;;;;49.65;31.55;;;;;;;;;;10276332;28;20068;-63
2022/11/25 18:44:25;;;;;;;25.67;19.02;;;;;;;;;;10277445;28;20503;-62
2022/11/25 18:49:23;;;;;;;34.17;23.42;;;;;;;;;;10278110;28;20041;-64
2022/11/25 18:54:22;;;;;;;81.82;48.58;;;;;;;;;;10279043;28;20052;-63
2022/11/25 18:59:24;;;;;;;78.05;44.85;;;;;;;;;;10278390;28;20053;-63
2022/11/25 19:04:22;;;;;;;94.35;54.83;;;;;;;;;;10277986;28;20080;-62
2022/11/25 19:09:20;;;;;;;41.15;27.52;;;;;;;;;;10278575;28;20041;-63
2022/11/25 19:14:26;;;;;;;74.55;49.13;;;;;;;;;;10278342;28;20084;-64
2022/11/25 19:19:26;;;;;;;46.90;30.70;;;;;;;;;;10277710;28;20520;-63
2022/11/25 19:24:24;;;;;;;31.95;22.60;;;;;;;;;;10277995;28;20098;-63
2022/11/25 19:29:25;;;;;;;24.42;18.92;;;;;;;;;;10277439;28;20088;-63
2022/11/25 19:34:29;;;;;;;43.38;32.97;;;;;;;;;;10277275;28;20044;-63
2022/11/25 19:39:28;;;;;;;42.15;27.52;;;;;;;;;;10276856;28;20044;-62
2022/11/25 19:44:27;;;;;;;27.05;21.73;;;;;;;;;;10276093;28;20079;-63
2022/11/25 19:49:27;;;;;;;21.10;15.98;;;;;;;;;;10276401;28;20061;-63
2022/11/25 19:54:25;;;;;;;43.33;29.00;;;;;;;;;;10276588;28;20037;-62
2022/11/25 19:59:23;;;;;;;22.48;17.38;;;;;;;;;;10275799;28;20110;-63
2022/11/25 20:04:22;;;;;;;19.15;14.77;;;;;;;;;;10275906;28;20072;-64
2022/11/25 20:09:21;;;;;;;16.02;11.55;;;;;;;;;;10276197;28;20094;-62
2022/11/25 20:14:19;;;;;;;17.58;13.57;;;;;;;;;;10275853;28;20111;-62
2022/11/25 20:19:18;;;;;;;19.30;13.85;;;;;;;;;;10276420;28;20073;-62
2022/11/25 20:24:18;;;;;;;18.35;14.13;;;;;;;;;;10235393;28;20076;-63
2022/11/25 20:29:18;;;;;;;33.78;20.30;;;;;;;;;;10234888;28;20084;-63
2022/11/25 20:34:16;;;;;;;54.75;30.73;;;;;;;;;;10235104;28;20080;-63
2022/11/25 20:39:16;;;;;;;26.58;17.45;;;;;;;;;;10234925;28;20052;-63
2022/11/25 20:44:14;;;;;;;37.67;20.80;;;;;;;;;;10235947;28;20080;-63
2022/11/25 20:49:19;;;;;;;32.22;20.92;;;;;;;;;;10275455;28;20095;-62
2022/11/25 20:54:17;;;;;;;25.50;18.25;;;;;;;;;;10277147;28;20079;-63
2022/11/25 20:59:18;;;;;;;18.67;13.30;;;;;;;;;;10242549;28;20053;-62
2022/11/25 21:04:18;;;;;;;18.42;13.52;;;;;;;;;;10242874;28;20081;-62
2022/11/25 21:09:18;;;;;;;16.98;13.70;;;;;;;;;;10242528;28;20046;-62
2022/11/25 21:14:18;;;;;;;17.27;13.40;;;;;;;;;;10243260;28;20423;-61
2022/11/25 21:19:17;;;;;;;14.45;12.80;;;;;;;;;;10242199;28;20426;-62
2022/11/25 21:24:23;;;;;;;20.40;15.45;;;;;;;;;;10242161;28;20065;-62
2022/11/25 21:29:21;;;;;;;19.02;14.90;;;;;;;;;;10242089;28;20088;-63
2022/11/25 21:34:21;;;;;;;15.80;12.55;;;;;;;;;;10282748;28;20383;-63
2022/11/25 21:39:26;;;;;;;14.80;12.68;;;;;;;;;;10281882;28;20069;-63
2022/11/25 21:44:27;;;;;;;22.02;18.50;;;;;;;;;;10241782;28;20087;-63
2022/11/25 21:49:26;;;;;;;46.42;32.45;;;;;;;;;;10281272;28;20052;-63
2022/11/25 21:54:24;;;;;;;54.28;37.40;;;;;;;;;;10280257;28;20045;-63
2022/11/25 21:59:23;;;;;;;15.85;13.40;;;;;;;;;;10281420;28;20075;-63
2022/11/25 22:04:21;;;;;;;40.97;28.42;;;;;;;;;;10281048;28;20068;-63
2022/11/25 22:09:21;;;;;;;25.80;19.35;;;;;;;;;;10279944;28;20049;-63
2022/11/25 22:14:26;;;;;;;22.60;14.85;;;;;;;;;;10240588;28;20419;-65
2022/11/25 22:19:25;;;;;;;33.97;22.08;;;;;;;;;;10240521;28;20048;-63
2022/11/25 22:24:25;;;;;;;20.77;14.45;;;;;;;;;;10280307;28;20084;-63
2022/11/25 22:29:27;;;;;;;30.95;21.52;;;;;;;;;;10279437;28;20043;-63
2022/11/25 22:34:25;;;;;;;36.20;25.73;;;;;;;;;;10267788;28;20104;-62
2022/11/25 22:39:26;;;;;;;21.27;15.82;;;;;;;;;;10261013;28;20075;-62
2022/11/25 22:44:27;;;;;;;23.85;18.50;;;;;;;;;;10262095;28;20069;-63
2022/11/25 22:49:30;;;;;;;17.23;14.70;;;;;;;;;;10278804;28;20049;-64
2022/11/25 22:54:29;;;;;;;25.20;17.75;;;;;;;;;;10246815;28;20041;-62
2022/11/25 22:59:28;;;;;;;50.72;36.83;;;;;;;;;;10249308;28;20061;-61
2022/11/25 23:04:26;;;;;;;21.73;17.08;;;;;;;;;;10259801;28;20548;-60
2022/11/25 23:09:24;;;;;;;17.92;15.45;;;;;;;;;;10256012;28;20061;-61
2022/11/25 23:14:23;;;;;;;33.63;22.92;;;;;;;;;;10255216;28;20065;-60
2022/11/25 23:19:22;;;;;;;35.45;24.13;;;;;;;;;;10257160;28;20135;-60
2022/11/25 23:24:20;;;;;;;29.55;21.92;;;;;;;;;;10254945;28;20057;-61
2022/11/25 23:29:18;;;;;;;33.88;22.75;;;;;;;;;;10254996;28;20057;-60
2022/11/25 23:34:17;;;;;;;16.63;12.45;;;;;;;;;;10277610;28;20044;-61
2022/11/25 23:39:18;;;;;;;21.30;15.73;;;;;;;;;;10276893;28;20438;-60
2022/11/25 23:44:17;;;;;;;16.17;12.68;;;;;;;;;;10237241;28;20100;-60
2022/11/25 23:49:18;;;;;;;16.77;11.48;;;;;;;;;;10254087;28;20080;-61
2022/11/25 23:54:20;;;;;;;21.90;15.32;;;;;;;;;;10236384;28;20061;-60
2022/11/25 23:59:18;;;;;;;18.85;14.52;;;;;;;;;;10235646;28;20084;-61
